Latest METAR Data

Below are the latest METARs ("Meteorological Services to Airmen Reports"), for RNAS Culdrose and Newquay Airport.

EGDR - RNAS Culdrose
Distance from station: SW 6mi, 9km
Updated: Sat, 22-Feb-2020 5:50pm GMT
Partly Cloudy
Partly Cloudy
 Wind from WSW
Wind: WSW 14 mph , 22 km/h
Temperature: 50°F , 10°C
Wind Chill: 45°F , 7°C
Dew Point: 48°F , 9°C
Humidity: 94%
Barometer: 30.24 inHg , 1024 hPa
Clouds: Partly Cloudy
Visibility: 5 miles , 8 km
Cloud details: Mostly Cloudy 1400 ft
Partly Cloudy 6000 ft
2020/02/22 17:50 EGDR 221750Z AUTO 25012KT 8000 // BKN014/// SCT060/// 10/09 Q1024
EGHQ - Newquay Airport
Distance from station: NE 21mi, 34km
Updated: Sat, 22-Feb-2020 6:20pm GMT
Partly Cloudy
Partly Cloudy
 Wind from WSW
Wind: WSW 16 mph , 26 km/h, Gust: 28 mph , 44 km/h
Temperature: 48°F , 9°C
Wind Chill: 42°F , 6°C
Dew Point: 46°F , 8°C
Humidity: 94%
Barometer: 30.24 inHg , 1024 hPa
Clouds: Partly Cloudy
Visibility: 4 miles , 6 km
Cloud details: Partly Cloudy 800 ft
2020/02/22 18:20 EGHQ 221820Z 24014G24KT 6000 SCT008 09/08 Q1024 REDZ
 
EGTE - Exeter Airport
Distance from station: ENE 88mi, 141km
Updated: Sat, 22-Feb-2020 6:20pm GMT
Light rain, Few clouds
Light rain, Few clouds
 Wind from WSW
Wind: WSW 9 mph , 15 km/h
Temperature: 48°F , 9°C
Wind Chill: 44°F , 7°C
Dew Point: 43°F , 6°C
Humidity: 82%
Barometer: 30.21 inHg , 1023 hPa
Summary: Light Rain
Clouds: Few Clouds
Visibility: 6 miles , 10 km
Cloud details: Few Clouds 2000 ft
2020/02/22 18:20 EGTE 221820Z 24008KT 9999 -RA FEW020 09/06 Q1023
EGHE - St Marys, IOS
Distance from station: W 51mi, 82km
Updated: Sat, 22-Feb-2020 4:50pm GMT
NOT Current
Light rain, Partly cloudy
Light rain, Partly cloudy
 Wind from WSW
Wind: WSW 20 mph , 31 km/h
Temperature: 50°F , 10°C
Wind Chill: 44°F , 7°C
Dew Point: 48°F , 9°C
Humidity: 94%
Barometer: 30.27 inHg , 1025 hPa
Summary: Light Rain
Clouds: Partly Cloudy
Visibility: 4 miles , 6 km
Cloud details: Few Clouds 1500 ft
Partly Cloudy 3000 ft
2020/02/22 16:50 EGHE 221650Z 24017KT 6000 -RA FEW015 SCT030 10/09 Q1025

Metar display script from Saratoga-Weather.org

 

 

UK - WEATHER STATION TOPSITES - UK World Weather Websites

Copyright © Carnkie Weather 2009 - 2020.